Time;durP1;ratioP1;P1;durP2;ratioP2;P2;SDS_P1;SDS_P2;PMS_P1;PMS_P2;Temp;Humidity;BMP_temperature;BMP_pressure;BME280_temperature;BME280_humidity;BME280_pressure;Samples;Min_cycle;Max_cycle;Signal;HPM_P1;HPM_P2
2022/01/09 00:00:37;;;;;;;1.60;0.87;;;4.00;99.90;;;4.01;69.07;95517.25;4955814;28;20348;-40
2022/01/09 00:03:06;;;;;;;1.57;1.10;;;3.90;99.90;;;4.00;69.30;95518.28;4954474;28;20058;-40
2022/01/09 00:05:36;;;;;;;2.63;1.23;;;3.90;99.90;;;4.02;68.92;95505.75;4954876;28;20053;-40
2022/01/09 00:08:04;;;;;;;3.17;0.90;;;3.90;99.90;;;4.01;69.18;95500.66;4954276;29;20051;-40
2022/01/09 00:10:34;;;;;;;1.20;0.50;;;4.00;99.90;;;4.01;69.25;95498.81;4954340;28;20058;-40
2022/01/09 00:13:02;;;;;;;0.73;0.63;;;4.00;99.90;;;4.02;69.32;95497.03;4953455;28;20061;-40
2022/01/09 00:15:30;;;;;;;1.10;0.70;;;3.90;99.90;;;4.03;69.26;95491.59;4954990;28;20051;-40
2022/01/09 00:17:59;;;;;;;1.07;0.60;;;3.90;99.90;;;4.06;69.28;95477.25;4954686;29;20059;-40
2022/01/09 00:20:27;;;;;;;0.73;0.53;;;3.90;99.90;;;4.01;69.40;95469.06;4953154;28;20260;-40
2022/01/09 00:22:55;;;;;;;1.13;0.60;;;3.90;99.90;;;4.00;69.13;95470.06;4954697;28;20361;-40
2022/01/09 00:25:25;;;;;;;0.70;0.47;;;3.90;99.90;;;3.96;70.40;95459.06;4954882;28;20043;-40
2022/01/09 00:27:53;;;;;;;0.63;0.50;;;3.80;99.90;;;3.90;69.95;95465.81;4953380;29;20051;-40
2022/01/09 00:30:23;;;;;;;1.07;0.27;;;3.80;99.90;;;3.94;70.04;95453.97;4936768;29;20065;-40
2022/01/09 00:32:53;;;;;;;1.50;0.60;;;3.80;99.90;;;3.87;69.88;95452.19;4952910;29;20370;-40
2022/01/09 00:35:21;;;;;;;0.57;0.40;;;3.80;99.90;;;3.90;69.96;95443.97;4955405;28;20051;-40
2022/01/09 00:37:50;;;;;;;1.07;0.50;;;3.80;99.90;;;3.88;70.75;95446.75;4954536;28;20270;-40
2022/01/09 00:40:18;;;;;;;0.60;0.57;;;3.80;99.90;;;3.86;70.48;95442.66;4952965;28;20070;-40
2022/01/09 00:42:46;;;;;;;0.67;0.47;;;3.80;99.90;;;3.87;70.71;95445.09;4953697;28;20055;-40
2022/01/09 00:45:16;;;;;;;1.00;0.57;;;3.90;99.90;;;3.93;70.43;95440.97;4954343;28;20055;-40
2022/01/09 00:47:45;;;;;;;0.77;0.43;;;3.80;99.90;;;3.88;70.75;95440.69;4953615;29;20066;-40
2022/01/09 00:50:15;;;;;;;0.53;0.50;;;3.80;99.90;;;3.89;70.61;95442.31;4954724;29;20053;-40
2022/01/09 00:52:43;;;;;;;0.63;0.40;;;3.80;99.90;;;3.92;70.06;95423.53;4952626;29;20390;-40
2022/01/09 00:55:12;;;;;;;1.13;0.60;;;3.90;99.90;;;3.91;70.55;95438.50;4955143;29;20067;-40
2022/01/09 00:57:40;;;;;;;0.70;0.60;;;3.90;99.90;;;3.92;70.41;95419.09;4953069;29;20057;-40
2022/01/09 01:00:09;;;;;;;0.83;0.50;;;3.90;99.90;;;3.97;70.66;95425.63;4954191;29;20036;-40
2022/01/09 01:02:38;;;;;;;0.87;0.57;;;3.80;99.90;;;3.97;70.24;95413.28;4952836;28;20061;-40
2022/01/09 01:05:07;;;;;;;0.40;0.30;;;3.80;99.90;;;3.96;70.65;95397.69;4954411;29;20357;-40
2022/01/09 01:07:35;;;;;;;0.57;0.53;;;3.90;99.90;;;3.97;70.60;95412.47;4953158;28;20353;-40
2022/01/09 01:10:08;;;;;;;1.13;0.40;;;3.80;99.90;;;3.96;70.78;95398.50;4949979;29;20238;-40
2022/01/09 01:12:36;;;;;;;0.57;0.30;;;3.90;99.90;;;3.99;70.02;95399.94;4949757;29;20062;-40
2022/01/09 01:15:06;;;;;;;0.47;0.37;;;3.90;99.90;;;3.99;70.02;95410.50;4952360;29;20063;-37
2022/01/09 01:17:35;;;;;;;0.50;0.40;;;3.90;99.90;;;3.98;70.34;95393.06;4951387;28;20059;-37
2022/01/09 01:20:05;;;;;;;0.37;0.37;;;3.90;99.90;;;4.00;70.12;95404.25;4951255;29;20089;-37
2022/01/09 01:22:34;;;;;;;0.37;0.37;;;3.80;99.90;;;4.01;70.05;95405.88;4950764;29;20065;-37
2022/01/09 01:25:05;;;;;;;0.50;0.40;;;3.80;99.90;;;3.96;70.51;95414.28;4950650;29;20043;-37
2022/01/09 01:27:33;;;;;;;0.20;0.20;;;3.80;99.90;;;3.90;70.40;95407.91;4950051;29;20070;-37
2022/01/09 01:30:01;;;;;;;0.40;0.30;;;3.80;99.90;;;3.94;70.55;95413.66;4950953;29;20419;-37
2022/01/09 01:32:29;;;;;;;1.23;0.27;;;3.90;99.90;;;3.89;70.98;95405.44;4950435;29;20047;-37
2022/01/09 01:34:58;;;;;;;0.37;0.30;;;3.80;99.90;;;3.90;70.58;95404.47;4949632;29;20055;-37
2022/01/09 01:37:26;;;;;;;0.67;0.43;;;3.80;99.90;;;3.84;70.85;95408.63;4950977;29;20073;-37
2022/01/09 01:39:54;;;;;;;0.50;0.40;;;3.80;99.90;;;3.85;71.22;95406.78;4950807;29;20051;-37
2022/01/09 01:42:22;;;;;;;0.47;0.40;;;3.80;99.90;;;3.85;70.36;95394.44;4949510;29;20249;-37
2022/01/09 01:44:51;;;;;;;0.57;0.40;;;3.80;99.90;;;3.85;71.06;95399.72;4950441;29;20053;-37
2022/01/09 01:47:20;;;;;;;0.70;0.50;;;3.80;99.90;;;3.87;71.15;95413.50;4949813;29;20057;-37
2022/01/09 01:49:50;;;;;;;0.53;0.40;;;3.80;99.90;;;3.88;70.51;95391.47;4942660;29;20379;-37
2022/01/09 01:52:25;;;;;;;0.50;0.50;;;3.80;99.90;;;3.90;71.04;95400.03;4949407;29;20055;-37
2022/01/09 01:54:54;;;;;;;0.50;0.40;;;3.90;99.90;;;3.87;71.38;95397.72;4950255;29;20050;-37
2022/01/09 01:57:22;;;;;;;0.53;0.37;;;3.80;99.90;;;3.90;70.97;95404.47;4948666;29;20253;-37
2022/01/09 01:59:50;;;;;;;0.60;0.30;;;3.90;99.90;;;3.93;70.55;95404.91;4948567;29;20069;-37
2022/01/09 02:02:18;;;;;;;1.47;0.73;;;3.90;99.90;;;3.92;71.23;95405.13;4948781;29;20071;-37
2022/01/09 02:04:46;;;;;;;1.17;0.70;;;3.90;99.90;;;3.97;70.92;95401.94;4950012;29;20221;-37
2022/01/09 02:07:15;;;;;;;0.67;0.50;;;3.90;99.90;;;3.96;71.09;95403.78;4949921;29;20047;-37
2022/01/09 02:09:44;;;;;;;0.57;0.40;;;3.90;99.90;;;3.92;71.73;95418.28;4949177;29;20054;-37
2022/01/09 02:12:12;;;;;;;5.83;1.87;;;3.90;99.90;;;3.97;71.31;95408.03;4949691;29;20067;-37
2022/01/09 02:14:44;;;;;;;1.17;0.73;;;3.90;99.90;;;3.97;71.42;95418.56;4949415;29;20147;-37
2022/01/09 02:17:22;;;;;;;1.67;0.80;;;3.90;99.90;;;4.02;70.95;95428.59;4949857;29;20062;-37
2022/01/09 02:19:57;;;;;;;0.40;0.30;;;3.90;99.90;;;4.01;71.47;95422.47;4949415;28;20069;-37
2022/01/09 02:22:30;;;;;;;5.33;2.23;;;4.00;99.90;;;4.04;71.16;95431.84;4950004;29;20062;-37
2022/01/09 02:24:58;;;;;;;2.60;1.40;;;4.00;99.90;;;4.00;71.58;95430.56;4949892;29;20053;-37
2022/01/09 02:27:26;;;;;;;4.40;1.53;;;3.90;99.90;;;4.00;71.59;95428.75;4949858;29;20055;-37
2022/01/09 02:29:54;;;;;;;6.37;2.30;;;3.90;99.90;;;4.07;70.81;95428.84;4949348;29;20055;-37
2022/01/09 02:32:22;;;;;;;4.87;2.27;;;4.00;99.90;;;4.08;71.46;95425.25;4950408;29;20278;-37
2022/01/09 02:34:51;;;;;;;2.57;1.50;;;3.90;99.90;;;4.09;70.85;95438.25;4948817;29;20065;-37
2022/01/09 02:37:19;;;;;;;4.13;1.53;;;4.00;99.90;;;4.13;71.20;95430.81;4949622;29;20055;-37
2022/01/09 02:39:49;;;;;;;2.23;1.23;;;4.00;99.90;;;4.13;71.24;95422.91;4948410;29;20067;-37
2022/01/09 02:42:28;;;;;;;5.83;2.93;;;4.00;99.90;;;4.13;71.18;95428.19;4949463;29;20054;-37
2022/01/09 02:44:57;;;;;;;1.90;1.07;;;4.00;99.90;;;4.15;71.02;95436.72;4949943;29;20061;-37
2022/01/09 02:47:28;;;;;;;2.67;1.37;;;4.00;99.90;;;4.09;71.46;95440.03;4949106;29;20047;-37
2022/01/09 02:50:02;;;;;;;2.57;1.03;;;4.00;99.90;;;4.11;71.31;95433.63;4949543;29;20455;-37
2022/01/09 02:52:35;;;;;;;2.80;1.30;;;4.10;99.90;;;4.10;71.30;95444.31;4949622;29;20059;-40
2022/01/09 02:57:32;;;;;;;5.10;2.97;;;4.10;99.90;;;4.18;71.80;95439.00;4949461;29;20055;-40
2022/01/09 03:00:01;;;;;;;7.63;3.50;;;4.10;99.90;;;4.20;71.79;95446.72;4948752;29;20259;-40
2022/01/09 03:02:29;;;;;;;2.93;1.33;;;4.20;99.90;;;4.21;71.49;95443.09;4949669;29;20055;-40
2022/01/09 03:04:57;;;;;;;3.87;1.20;;;4.20;99.90;;;4.20;72.08;95450.16;4949721;29;20047;-40
2022/01/09 03:07:25;;;;;;;2.17;1.20;;;4.20;99.90;;;4.25;71.87;95454.94;4948799;29;20051;-41
2022/01/09 03:09:53;;;;;;;6.07;2.97;;;4.20;99.90;;;4.26;71.96;95462.63;4948305;29;20353;-40
2022/01/09 03:12:23;;;;;;;1.93;0.77;;;4.20;99.90;;;4.31;72.03;95457.66;4948512;29;20073;-40
2022/01/09 03:14:51;;;;;;;3.80;1.67;;;4.30;99.90;;;4.35;71.98;95458.13;4949628;29;20047;-40
2022/01/09 03:17:20;;;;;;;3.67;1.87;;;4.30;99.90;;;4.42;71.30;95460.88;4948530;29;20385;-40
2022/01/09 03:19:48;;;;;;;2.93;1.60;;;4.40;99.90;;;4.44;71.64;95472.91;4948033;29;20055;-40
2022/01/09 03:22:16;;;;;;;1.03;0.60;;;4.40;99.90;;;4.42;72.07;95451.19;4948849;29;20054;-40
2022/01/09 03:24:44;;;;;;;1.33;0.70;;;4.40;99.90;;;4.46;72.06;95468.28;4948665;29;20051;-40
2022/01/09 03:27:12;;;;;;;2.33;1.13;;;4.50;99.90;;;4.46;72.19;95468.28;4949501;29;20066;-40
2022/01/09 03:29:41;;;;;;;1.37;0.70;;;4.40;99.90;;;4.45;72.83;95463.97;4948779;29;20059;-40
2022/01/09 03:32:10;;;;;;;0.83;0.53;;;4.50;99.90;;;4.51;72.27;95471.19;4948440;28;20073;-40
2022/01/09 03:34:39;;;;;;;2.27;1.03;;;4.50;99.90;;;4.53;72.06;95479.72;4949706;29;20344;-40
2022/01/09 03:37:07;;;;;;;2.20;0.90;;;4.50;99.90;;;4.58;72.07;95476.59;4948927;29;20053;-40
2022/01/09 03:39:36;;;;;;;0.90;0.60;;;4.50;99.90;;;4.59;72.25;95472.94;4948295;29;20059;-40
2022/01/09 03:42:05;;;;;;;0.87;0.20;;;4.50;99.90;;;4.61;71.98;95478.84;4948387;29;20248;-40
2022/01/09 03:44:33;;;;;;;0.53;0.20;;;4.60;99.90;;;4.61;71.67;95486.75;4947634;29;20069;-40
2022/01/09 03:47:01;;;;;;;0.77;0.30;;;4.50;99.90;;;4.60;71.84;95485.13;4948520;29;20055;-40
2022/01/09 03:49:29;;;;;;;0.20;0.20;;;4.50;99.90;;;4.61;71.39;95494.66;4947547;29;20047;-40
2022/01/09 03:51:59;;;;;;;0.97;0.23;;;4.50;99.90;;;4.60;71.98;95493.03;4947663;29;20363;-40
2022/01/09 03:54:27;;;;;;;0.40;0.40;;;4.50;99.90;;;4.62;72.57;95484.97;4948827;29;20073;-40
2022/01/09 03:56:56;;;;;;;0.23;0.20;;;4.50;99.90;;;4.66;72.18;95494.16;4948902;29;20055;-41
2022/01/09 03:59:24;;;;;;;0.30;0.30;;;4.60;99.90;;;4.67;71.95;95499.25;4947829;29;20559;-40
2022/01/09 04:01:52;;;;;;;1.17;0.43;;;4.60;99.90;;;4.71;71.83;95497.88;4947941;29;20463;-40
2022/01/09 04:04:20;;;;;;;4.03;2.90;;;4.60;99.90;;;4.75;72.05;95501.00;4948103;29;20356;-40
2022/01/09 04:06:50;;;;;;;0.73;0.50;;;4.70;99.90;;;4.75;72.14;95519.44;4947288;29;20054;-40
2022/01/09 04:09:20;;;;;;;0.73;0.40;;;4.70;99.90;;;4.75;72.34;95519.44;4948393;29;20257;-40
2022/01/09 04:11:49;;;;;;;0.60;0.30;;;4.70;99.90;;;4.72;71.64;95522.44;4948116;29;20066;-40
2022/01/09 04:14:17;;;;;;;0.93;0.73;;;4.70;99.90;;;4.76;72.03;95523.72;4947315;29;20051;-40
2022/01/09 04:16:45;;;;;;;0.63;0.40;;;4.70;99.90;;;4.59;73.11;95538.81;4941523;29;20277;-40
2022/01/09 04:19:14;;;;;;;1.63;1.30;;;4.60;99.90;;;4.63;72.96;95539.28;4948387;29;20475;-40
2022/01/09 04:21:42;;;;;;;0.80;0.47;;;4.70;99.90;;;4.60;72.74;95539.66;4948467;29;20261;-40
2022/01/09 04:24:10;;;;;;;1.27;0.80;;;4.60;99.90;;;4.65;72.28;95553.97;4949694;29;20061;-40
2022/01/09 04:26:38;;;;;;;0.60;0.50;;;4.60;99.90;;;4.50;73.55;95567.06;4947859;29;20043;-40
2022/01/09 04:29:07;;;;;;;1.47;0.90;;;4.50;99.90;;;4.49;73.64;95578.56;4948901;29;20055;-40
2022/01/09 04:31:35;;;;;;;0.37;0.30;;;4.40;99.90;;;4.35;74.43;95600.41;4947777;29;20055;-40
2022/01/09 04:34:03;;;;;;;0.40;0.30;;;4.40;99.90;;;4.34;74.40;95604.00;4948367;29;20061;-40
2022/01/09 04:36:31;;;;;;;0.20;0.20;;;4.40;99.90;;;4.19;74.81;95609.22;4947274;29;20364;-40
2022/01/09 04:38:59;;;;;;;0.30;0.30;;;4.30;99.90;;;4.13;74.83;95615.97;4947363;29;20245;-40
2022/01/09 04:41:27;;;;;;;0.37;0.37;;;4.20;99.90;;;3.96;75.36;95622.28;4947014;29;20047;-40
2022/01/09 04:43:55;;;;;;;0.43;0.33;;;4.10;99.90;;;4.00;74.77;95623.59;4950009;28;20045;-40
2022/01/09 04:46:32;;;;;;;0.23;0.23;;;4.10;99.90;;;3.96;74.67;95638.09;4952867;29;20253;-40
2022/01/09 04:49:00;;;;;;;2.17;0.40;;;4.00;99.90;;;3.88;75.29;95661.81;4952061;29;20055;-37
2022/01/09 04:51:28;;;;;;;0.20;0.20;;;4.00;99.90;;;3.73;76.46;95637.97;4950620;29;20054;-37
2022/01/09 04:53:56;;;;;;;0.20;0.20;;;3.90;99.90;;;3.78;76.13;95638.31;4950612;29;20063;-37
2022/01/09 04:56:24;;;;;;;0.37;0.30;;;3.90;99.90;;;3.82;75.95;95665.09;4951096;29;20047;-37
2022/01/09 04:58:52;;;;;;;0.63;0.27;;;3.80;99.90;;;3.68;76.18;95672.69;4951626;29;20077;-37
2022/01/09 05:01:20;;;;;;;0.27;0.20;;;3.90;99.90;;;3.57;76.67;95672.19;4951766;29;20051;-37
2022/01/09 05:03:48;;;;;;;0.10;0.10;;;3.80;99.90;;;3.57;76.24;95675.66;4950763;29;20051;-37
2022/01/09 05:06:18;;;;;;;0.30;0.30;;;3.70;99.90;;;3.35;77.00;95698.19;4951067;29;20059;-37
2022/01/09 05:08:46;;;;;;;0.10;0.10;;;3.60;99.90;;;3.30;76.71;95705.75;4950649;29;20059;-37
2022/01/09 05:11:14;;;;;;;0.20;0.20;;;3.50;99.90;;;3.31;77.03;95699.50;4950761;29;20078;-37
2022/01/09 05:13:42;;;;;;;0.10;0.10;;;3.50;99.90;;;3.40;76.21;95731.91;4950997;29;20053;-37
2022/01/09 05:16:10;;;;;;;0.13;0.13;;;3.50;99.90;;;3.25;76.89;95714.13;4951787;29;20065;-37
2022/01/09 05:18:51;;;;;;;0.10;0.10;;;3.40;99.90;;;3.12;76.72;95725.13;4950781;29;20051;-37
2022/01/09 05:21:20;;;;;;;0.20;0.20;;;3.30;99.90;;;3.03;77.19;95747.13;4950859;29;20237;-37
2022/01/09 05:23:49;;;;;;;0.27;0.20;;;3.20;99.90;;;2.99;77.37;95742.34;4950621;29;20058;-36
2022/01/09 05:26:17;;;;;;;0.20;0.20;;;3.10;99.90;;;2.88;77.60;95773.19;4953261;29;20078;-37
2022/01/09 05:28:45;;;;;;;0.40;0.40;;;3.00;99.90;;;2.87;77.50;95753.16;4951525;29;20051;-37
2022/01/09 05:31:14;;;;;;;1.80;0.60;;;3.00;99.90;;;2.83;78.25;95778.13;4951170;29;20043;-37
2022/01/09 05:33:42;;;;;;;0.10;0.10;;;3.00;99.90;;;2.78;78.37;95771.69;4951001;29;20065;-37
2022/01/09 05:36:10;;;;;;;0.20;0.20;;;3.00;99.90;;;2.66;78.06;95794.81;4950534;29;20055;-37
2022/01/09 05:38:38;;;;;;;0.20;0.20;;;2.90;99.90;;;2.81;78.05;95785.34;4949778;29;20062;-37
2022/01/09 05:41:06;;;;;;;0.40;0.20;;;3.00;99.90;;;2.72;78.34;95799.44;4951179;29;20055;-37
2022/01/09 05:43:34;;;;;;;0.53;0.30;;;3.00;99.90;;;2.78;78.67;95811.13;4950834;29;20379;-37
2022/01/09 05:46:03;;;;;;;0.97;0.33;;;3.00;99.90;;;2.80;78.37;95802.06;4949036;29;20059;-37
2022/01/09 05:48:31;;;;;;;2.17;0.50;;;3.10;99.90;;;2.76;78.31;95838.34;4950620;29;20066;-37
2022/01/09 05:50:59;;;;;;;0.47;0.40;;;3.00;99.90;;;2.74;78.23;95815.84;4950322;29;20348;-37
2022/01/09 05:53:27;;;;;;;1.63;1.03;;;3.00;99.90;;;2.85;78.30;95814.75;4951232;29;20232;-37
2022/01/09 05:55:55;;;;;;;0.93;0.63;;;3.10;99.90;;;2.89;77.81;95831.84;4932325;29;20155;-37
2022/01/09 05:58:23;;;;;;;1.67;0.63;;;3.10;99.90;;;2.84;78.42;95866.50;4950803;29;20043;-37
2022/01/09 06:00:51;;;;;;;1.47;0.87;;;3.10;99.90;;;2.76;78.57;95890.91;4949952;29;20495;-37
2022/01/09 06:03:20;;;;;;;3.30;1.07;;;3.10;99.90;;;2.87;78.47;95842.53;4949622;29;20057;-37
2022/01/09 06:05:48;;;;;;;4.87;0.90;;;3.10;99.90;;;2.93;78.13;95848.97;4950032;29;20058;-37
2022/01/09 06:08:16;;;;;;;2.03;1.30;;;3.10;99.90;;;2.97;77.90;95881.84;4950226;29;20053;-37
2022/01/09 06:10:45;;;;;;;1.37;0.93;;;3.20;99.90;;;2.98;77.78;95869.50;4949698;29;20283;-37
2022/01/09 06:13:13;;;;;;;2.23;0.60;;;3.20;99.90;;;3.01;77.87;95874.47;4949473;29;20051;-37
2022/01/09 06:15:41;;;;;;;2.07;0.70;;;3.20;99.90;;;3.04;77.61;95879.41;4949715;29;20063;-38
2022/01/09 06:18:09;;;;;;;0.70;0.40;;;3.20;99.90;;;3.11;77.45;95891.75;4949538;29;20061;-37
2022/01/09 06:20:38;;;;;;;1.13;0.50;;;3.20;99.90;;;3.04;77.64;95895.97;4948656;29;20058;-37
2022/01/09 06:23:06;;;;;;;2.40;0.50;;;3.20;99.90;;;3.12;77.82;95919.72;4950778;29;20374;-37
2022/01/09 06:25:34;;;;;;;2.73;0.70;;;3.30;99.90;;;3.18;77.30;95912.16;4950212;29;20043;-37
2022/01/09 06:28:03;;;;;;;3.77;1.17;;;3.30;99.90;;;3.19;77.30;95913.81;4949784;29;20062;-37
2022/01/09 06:30:31;;;;;;;1.30;0.70;;;3.30;99.90;;;3.14;76.80;95936.16;4949330;29;20069;-37
2022/01/09 06:32:59;;;;;;;0.47;0.40;;;3.30;99.90;;;3.12;77.25;95924.13;4949832;29;20051;-37
2022/01/09 06:35:27;;;;;;;2.00;0.53;;;3.30;99.90;;;3.17;77.12;95961.31;4950210;29;20051;-37
2022/01/09 06:37:55;;;;;;;1.20;0.53;;;3.30;99.90;;;3.21;76.61;95925.00;4949242;29;20047;-37
2022/01/09 06:40:24;;;;;;;1.87;1.13;;;3.30;99.90;;;3.22;76.74;95945.03;4948257;29;20063;-37
2022/01/09 06:42:53;;;;;;;1.00;0.63;;;3.40;99.90;;;3.16;76.53;95964.94;4948291;29;20051;-37
2022/01/09 06:45:25;;;;;;;5.47;1.00;;;3.40;99.90;;;3.28;76.49;95952.34;4949152;29;20279;-37
2022/01/09 06:47:55;;;;;;;1.20;0.80;;;3.40;99.90;;;3.28;76.49;95963.66;4949100;29;20047;-37
2022/01/09 06:50:25;;;;;;;1.57;0.90;;;3.40;99.90;;;3.32;76.82;95953.66;4948528;29;20047;-37
2022/01/09 06:52:54;;;;;;;3.07;1.60;;;3.40;99.90;;;3.30;76.65;95961.72;4949161;29;20055;-37
2022/01/09 06:55:22;;;;;;;2.73;1.17;;;3.40;99.90;;;3.29;76.40;95970.56;4950132;29;20059;-37
2022/01/09 06:57:50;;;;;;;4.67;1.50;;;3.40;99.90;;;3.37;76.40;95985.56;4949565;29;20055;-37
2022/01/09 07:00:19;;;;;;;1.40;1.10;;;3.40;99.90;;;3.24;76.56;96007.06;4949745;29;20065;-37
2022/01/09 07:02:47;;;;;;;3.07;1.40;;;3.40;99.90;;;3.19;76.15;95995.34;4942240;29;20230;-37
2022/01/09 07:05:16;;;;;;;6.73;2.37;;;3.30;99.90;;;3.22;76.11;96009.00;4948521;29;20063;-37
2022/01/09 07:07:44;;;;;;;4.90;1.40;;;3.40;99.90;;;3.19;76.61;96005.88;4948584;28;20066;-37
2022/01/09 07:10:13;;;;;;;2.93;1.70;;;3.40;99.90;;;3.19;76.15;96011.13;4948772;29;20047;-37
2022/01/09 07:12:41;;;;;;;5.80;1.37;;;3.30;99.90;;;3.19;75.93;96024.28;4948606;29;20055;-37
2022/01/09 07:15:10;;;;;;;4.40;1.53;;;3.30;99.90;;;3.18;75.75;96030.50;4948971;29;20277;-37
2022/01/09 07:17:38;;;;;;;4.97;1.50;;;3.40;99.90;;;3.22;75.76;96029.19;4947041;29;20067;-37
2022/01/09 07:20:08;;;;;;;5.60;1.80;;;3.30;99.90;;;3.14;75.42;96019.47;4948826;29;20051;-37
2022/01/09 07:22:36;;;;;;;3.57;1.43;;;3.30;99.90;;;3.17;75.13;96042.00;4947024;29;20055;-37
2022/01/09 07:25:05;;;;;;;3.07;1.87;;;3.40;99.90;;;3.26;75.19;96051.63;4948721;29;20055;-37
2022/01/09 07:27:34;;;;;;;3.77;1.53;;;3.40;99.90;;;3.24;75.50;96040.41;4947538;29;20055;-37
2022/01/09 07:30:03;;;;;;;4.80;1.40;;;3.40;99.90;;;3.16;74.34;96056.97;4947322;29;20094;-37
2022/01/09 07:32:33;;;;;;;6.37;1.83;;;3.30;99.90;;;3.08;74.60;96059.53;4948425;29;20434;-37
2022/01/09 07:35:01;;;;;;;3.40;1.40;;;3.30;99.90;;;3.05;74.75;96081.69;4946071;29;20059;-37
2022/01/09 07:37:30;;;;;;;3.87;1.23;;;3.20;99.90;;;3.15;74.30;96071.91;4947494;29;20062;-37
2022/01/09 07:39:59;;;;;;;2.40;1.10;;;3.30;99.90;;;3.20;74.16;96076.72;4948411;29;20047;-37
2022/01/09 07:42:28;;;;;;;4.07;1.30;;;3.30;99.90;;;3.06;73.97;96085.97;4947148;29;20085;-37
2022/01/09 07:44:56;;;;;;;5.17;1.43;;;3.20;99.90;;;2.93;74.47;96090.81;4948105;29;20059;-37
2022/01/09 07:47:25;;;;;;;4.93;1.50;;;3.10;99.90;;;2.96;74.75;96104.47;4947330;29;20047;-37
2022/01/09 07:49:53;;;;;;;2.50;1.00;;;3.10;99.90;;;2.88;74.90;96101.75;4946499;29;20073;-37
2022/01/09 07:52:21;;;;;;;4.23;1.40;;;3.00;99.90;;;2.87;74.70;96118.53;4948197;29;20053;-37
2022/01/09 07:54:49;;;;;;;2.40;1.10;;;3.10;99.90;;;2.82;75.00;96099.75;4945845;29;20055;-37
2022/01/09 07:57:18;;;;;;;5.20;1.13;;;3.00;99.90;;;2.74;74.63;96118.88;4946911;29;20119;-37
2022/01/09 07:59:46;;;;;;;3.70;1.30;;;2.90;99.90;;;2.84;74.79;96120.63;4948413;29;20348;-37
2022/01/09 08:02:14;;;;;;;3.00;1.03;;;3.00;99.90;;;2.89;74.08;96129.72;4946635;29;20056;-37
2022/01/09 08:04:42;;;;;;;6.00;1.33;;;3.00;99.90;;;2.86;74.26;96118.66;4948209;29;20061;-37
2022/01/09 08:07:11;;;;;;;6.57;1.80;;;3.00;99.90;;;2.74;73.72;96124.16;4946666;29;20051;-37
2022/01/09 08:09:40;;;;;;;5.30;1.50;;;3.00;99.90;;;2.76;72.91;96134.50;4947307;29;20055;-37
2022/01/09 08:12:10;;;;;;;5.83;1.50;;;3.10;99.90;;;2.85;73.52;96122.25;4947646;29;20066;-37
2022/01/09 08:14:38;;;;;;;4.33;1.30;;;3.00;99.90;;;2.86;73.49;96137.06;4947197;29;20253;-37
2022/01/09 08:17:07;;;;;;;4.63;1.63;;;3.00;99.90;;;2.88;72.91;96150.88;4946042;28;20081;-37
2022/01/09 08:19:37;;;;;;;3.70;1.43;;;3.10;99.90;;;2.89;72.73;96178.81;4951338;29;20073;-37
2022/01/09 08:22:07;;;;;;;3.30;2.00;;;3.00;99.90;;;3.01;73.29;96168.94;4950006;29;20365;-37
2022/01/09 08:24:38;;;;;;;2.67;0.87;;;3.10;99.90;;;2.88;72.85;96174.53;4951758;29;20051;-37
2022/01/09 08:27:08;;;;;;;3.90;1.27;;;3.10;99.90;;;2.88;72.31;96201.66;4951793;29;20055;-37
2022/01/09 08:29:39;;;;;;;5.30;1.80;;;3.10;99.90;;;2.89;72.45;96194.59;4951007;29;20330;-37
2022/01/09 08:32:10;;;;;;;6.80;2.07;;;3.10;99.90;;;2.91;72.58;96193.47;4949683;29;20051;-37
2022/01/09 08:34:38;;;;;;;3.80;1.43;;;3.00;99.90;;;2.98;72.38;96191.06;4952456;29;20356;-37
2022/01/09 08:37:11;;;;;;;4.60;1.83;;;3.10;99.90;;;3.04;71.83;96208.06;4950425;29;20051;-37
2022/01/09 08:39:41;;;;;;;3.43;1.57;;;3.20;99.90;;;3.02;71.41;96197.69;4952702;29;20059;-37
2022/01/09 08:42:09;;;;;;;3.53;1.67;;;3.20;99.90;;;3.02;71.23;96202.94;4950107;29;20051;-37
2022/01/09 08:44:38;;;;;;;5.50;1.60;;;3.10;99.90;;;3.10;70.83;96220.59;4950986;29;20047;-37
2022/01/09 08:47:08;;;;;;;6.03;1.40;;;3.20;99.90;;;3.05;70.94;96218.44;4950655;29;20043;-37
2022/01/09 08:49:37;;;;;;;8.70;1.90;;;3.20;99.90;;;3.12;70.86;96226.53;4950252;29;20062;-37
2022/01/09 08:52:06;;;;;;;3.77;1.37;;;3.20;99.90;;;3.11;70.39;96228.34;4950485;29;20252;-37
2022/01/09 08:54:34;;;;;;;5.80;2.27;;;3.20;99.90;;;3.19;70.92;96226.78;4949575;29;20063;-37
2022/01/09 08:57:03;;;;;;;4.77;2.37;;;3.30;99.90;;;3.23;70.26;96252.63;4950868;29;20353;-37
2022/01/09 08:59:31;;;;;;;4.03;1.97;;;3.30;99.90;;;3.24;70.71;96240.28;4946768;29;20047;-37
2022/01/09 09:01:59;;;;;;;5.53;1.33;;;3.30;99.90;;;3.13;69.27;96249.25;4945966;29;20063;-37
2022/01/09 09:04:27;;;;;;;4.93;2.20;;;3.30;99.90;;;3.24;70.44;96251.66;4948841;29;20055;-37
2022/01/09 09:06:55;;;;;;;6.17;1.23;;;3.40;99.90;;;3.11;69.68;96252.00;4949358;29;20055;-37
2022/01/09 09:09:24;;;;;;;5.00;1.80;;;3.30;99.90;;;3.21;70.08;96251.13;4949743;29;20388;-37
2022/01/09 09:11:52;;;;;;;4.67;1.83;;;3.40;99.90;;;3.33;70.21;96248.13;4949698;29;20051;-37
2022/01/09 09:14:23;;;;;;;5.93;1.90;;;3.40;99.90;;;3.36;70.30;96257.53;4949603;29;20073;-37
2022/01/09 09:16:51;;;;;;;6.73;3.40;;;3.50;99.90;;;3.39;70.32;96259.00;4949526;29;20059;-37
2022/01/09 09:19:19;;;;;;;4.77;2.30;;;3.50;99.90;;;3.44;69.87;96283.09;4949632;29;20051;-37
2022/01/09 09:21:47;;;;;;;4.03;1.20;;;3.50;99.90;;;3.54;69.95;96286.47;4949182;29;20140;-37
2022/01/09 09:24:17;;;;;;;5.47;1.43;;;3.60;99.90;;;3.58;70.03;96287.00;4950996;29;20051;-37
2022/01/09 09:26:45;;;;;;;2.70;1.00;;;3.60;99.90;;;3.61;69.95;96292.78;4950496;29;20244;-37
2022/01/09 09:29:13;;;;;;;6.87;1.97;;;3.60;99.90;;;3.70;70.02;96312.09;4949785;28;20222;-37
2022/01/09 09:31:41;;;;;;;5.30;1.50;;;3.70;99.90;;;3.73;70.22;96291.56;4950869;29;20123;-37
2022/01/09 09:34:09;;;;;;;5.20;1.57;;;3.70;99.90;;;3.73;69.66;96306.53;4951118;29;20059;-37
2022/01/09 09:36:38;;;;;;;4.03;1.67;;;3.70;99.90;;;3.77;69.77;96304.44;4951291;29;20316;-37
2022/01/09 09:39:08;;;;;;;3.40;1.33;;;3.70;99.90;;;3.79;69.98;96305.09;4950497;29;20059;-37
2022/01/09 09:41:38;;;;;;;3.07;1.13;;;3.70;99.90;;;3.80;69.71;96317.28;4950277;29;20069;-37
2022/01/09 09:44:09;;;;;;;3.97;1.63;;;3.70;99.90;;;3.85;70.18;96312.41;4951088;29;20050;-37
2022/01/09 09:46:37;;;;;;;5.30;1.80;;;3.70;99.90;;;3.86;69.89;96317.50;4949265;29;20065;-37
2022/01/09 09:49:06;;;;;;;5.00;1.57;;;3.80;99.90;;;3.94;69.95;96314.94;4949969;29;20066;-37
2022/01/09 09:51:34;;;;;;;3.77;1.23;;;3.80;99.90;;;3.94;69.94;96309.69;4949372;29;20051;-37
2022/01/09 09:54:02;;;;;;;4.03;1.40;;;3.80;99.90;;;4.00;69.53;96320.59;4949116;29;20099;-37
2022/01/09 09:56:30;;;;;;;6.20;1.80;;;3.80;99.90;;;4.09;69.61;96314.38;4950781;29;20071;-37
2022/01/09 09:59:00;;;;;;;3.40;1.50;;;3.90;99.90;;;4.10;69.51;96322.13;4950026;29;20355;-37
2022/01/09 10:01:35;;;;;;;4.07;1.50;;;4.00;99.90;;;4.17;69.37;96329.41;4949853;29;20065;-37
2022/01/09 10:04:07;;;;;;;6.07;1.73;;;4.00;99.90;;;4.10;68.68;96327.41;4949157;29;20062;-37
2022/01/09 10:06:48;;;;;;;6.53;1.63;;;4.00;99.90;;;4.13;68.34;96321.84;4949674;29;20248;-37
2022/01/09 10:09:21;;;;;;;3.23;1.67;;;4.10;99.90;;;4.14;69.25;96325.28;4948964;29;20059;-37
2022/01/09 10:12:04;;;;;;;2.83;1.80;;;4.00;99.90;;;4.17;68.25;96338.16;4949941;29;20055;-37
2022/01/09 10:14:34;;;;;;;3.27;1.97;;;4.10;99.90;;;4.12;68.79;96330.72;4949687;29;20059;-37
2022/01/09 10:17:16;;;;;;;7.50;1.60;;;4.10;99.90;;;4.20;69.08;96337.84;4948763;29;20239;-37
2022/01/09 10:19:47;;;;;;;3.30;1.33;;;4.20;99.90;;;4.23;68.98;96348.09;4949172;29;20253;-37
2022/01/09 10:22:36;;;;;;;2.50;1.30;;;4.20;99.90;;;4.05;68.18;96348.13;4948734;29;20043;-37
2022/01/09 10:25:30;;;;;;;6.13;1.10;;;4.20;99.90;;;4.01;69.18;96349.38;4950064;29;20245;-37
2022/01/09 10:28:14;;;;;;;3.60;1.67;;;4.00;99.90;;;4.05;69.56;96344.63;4949411;29;20337;-37
2022/01/09 10:30:45;;;;;;;5.50;1.65;;;4.00;99.90;;;4.16;70.00;96354.13;4948232;29;20078;-37
2022/01/09 10:33:20;;;;;;;5.90;1.83;;;4.10;99.90;;;4.17;70.17;96366.31;4949109;29;20043;-37
2022/01/09 10:35:50;;;;;;;8.00;1.60;;;4.10;99.90;;;4.18;69.80;96355.63;4950355;29;20061;-37
2022/01/09 10:38:29;;;;;;;3.67;1.40;;;4.10;99.90;;;4.12;69.32;96372.03;4947285;29;20055;-37
2022/01/09 10:41:03;;;;;;;3.23;1.20;;;4.10;99.90;;;4.05;69.87;96363.06;4947177;28;20058;-37
2022/01/09 10:43:41;;;;;;;2.23;1.10;;;4.00;99.90;;;4.11;69.53;96376.47;4948149;29;20063;-37